Terminal Aerodrome Forecast
Issued by NWS Wilmington, OH

Current Version | Previous Version | Text Only | Print | Product List | Glossary On
Versions: 1 2 3 4 5 6 7 8 9 10 11 12 13 14 15 16 17 18 19
000 FTUS41 KILN 221100 TAFILN TAF KILN 221139Z 2212/2312 20013KT P6SM VCSH OVC040 FM221400 19012KT P6SM BKN080 FM230900 18008KT P6SM SCT080 BKN200 TEMPO 2309/2312 BKN020=

USA.gov is the U.S. government's official web portal to all federal, state and local government web resources and services.